Council, Virginia
Current Conditions -  °F | °C
As of 10:55 PM on Thursday 27 Nov 2014 (Local Time) from KJFZ Reporting Station
Light Snow Light Snow  
Wind Chill: 21°   Ceiling: 1300
Heat Index: 27°   Visibility: 2.5mi
Dew Point: 24°   Wind: 6mph
Humidity: 89%   Direction: 300°WNW
Pressure: 30.25"   Gusts: NA
Location:  37.0328°N, 82.0042°W
Report Text: KJFZ 280355Z AUTO 30005KT 2 1/2SM -SN SCT006 BKN013 OVC017 M03/M04 A3025 RMK AO2 VIS 1 1/2V3 T10271043
Loading
Personal Weather Stations






























Interactive Weather Map New forecast layout! Learn more

10-Day Weather Forecast

Advertisements
Track Severe Weather on mobile